Aviation Digital Data Service (ADDS)

Output produced by METARs form (1414 UTC 21 August 2019)
found at http://www.aviationweather.gov/metar/data/
 
METAR text: WMKN 211400Z 22003KT 170V250 9999 FEW022 BKN300 26/24 Q1010
Conditions at: WMKN (KUALA TRENGGANU , MY) observed 1400 UTC 21 August 2019
Temperature: 26.0°C (79°F)
Dewpoint: 24.0°C (75°F) [RH = 89%]
Pressure (altimeter): 29.82 inches Hg (1010.0 mb)
Winds: from the SW (220 degrees) at 3 MPH (3 knots; 1.5 m/s)
Visibility: 6 or more miles (10+ km)
Ceiling: 30000 feet AGL
Clouds: few clouds at 2200 feet AGL
broken clouds at 30000 feet AGL
Weather: no significant weather observed at this time

METAR text: WMKN 211300Z VRB02KT 9999 FEW022 BKN300 26/24 Q1009
Conditions at: WMKN (KUALA TRENGGANU , MY) observed 1300 UTC 21 August 2019
Temperature: 26.0°C (79°F)
Dewpoint: 24.0°C (75°F) [RH = 89%]
Pressure (altimeter): 29.79 inches Hg (1009.0 mb)
Winds: variable direction winds at 2 MPH (2 knots; 1.0 m/s)
Visibility: 6 or more miles (10+ km)
Ceiling: 30000 feet AGL
Clouds: few clouds at 2200 feet AGL
broken clouds at 30000 feet AGL
Weather: no significant weather observed at this time

METAR text: WMKN 211200Z VRB03KT 9999 FEW020 BKN300 26/24 Q1009
Conditions at: WMKN (KUALA TRENGGANU , MY) observed 1200 UTC 21 August 2019
Temperature: 26.0°C (79°F)
Dewpoint: 24.0°C (75°F) [RH = 89%]
Pressure (altimeter): 29.79 inches Hg (1009.0 mb)
Winds: variable direction winds at 3 MPH (3 knots; 1.5 m/s)
Visibility: 6 or more miles (10+ km)
Ceiling: 30000 feet AGL
Clouds: few clouds at 2000 feet AGL
broken clouds at 30000 feet AGL
Weather: no significant weather observed at this time

METAR text: WMKN 211100Z 23003KT 190V260 9999 FEW018 BKN300 27/25 Q1008
Conditions at: WMKN (KUALA TRENGGANU , MY) observed 1100 UTC 21 August 2019
Temperature: 27.0°C (81°F)
Dewpoint: 25.0°C (77°F) [RH = 89%]
Pressure (altimeter): 29.76 inches Hg (1008.0 mb)
Winds: from the SW (230 degrees) at 3 MPH (3 knots; 1.5 m/s)
Visibility: 6 or more miles (10+ km)
Ceiling: 30000 feet AGL
Clouds: few clouds at 1800 feet AGL
broken clouds at 30000 feet AGL
Weather: no significant weather observed at this time

METAR text: WMKN 211000Z 18003KT 090V250 9999 FEW018 BKN300 27/24 Q1007 RETSRA
Conditions at: WMKN (KUALA TRENGGANU , MY) observed 1000 UTC 21 August 2019
Temperature: 27.0°C (81°F)
Dewpoint: 24.0°C (75°F) [RH = 84%]
Pressure (altimeter): 29.73 inches Hg (1007.0 mb)
Winds: from the S (180 degrees) at 3 MPH (3 knots; 1.5 m/s)
Visibility: 6 or more miles (10+ km)
Ceiling: 30000 feet AGL
Clouds: few clouds at 1800 feet AGL
broken clouds at 30000 feet AGL
Weather: no significant weather observed at this time

METAR text: WMKN 210900Z VRB03KT 9999 -TSRA FEW017CB BKN150 BKN300 26/24 Q1008
Conditions at: WMKN (KUALA TRENGGANU , MY) observed 0900 UTC 21 August 2019
Temperature: 26.0°C (79°F)
Dewpoint: 24.0°C (75°F) [RH = 89%]
Pressure (altimeter): 29.76 inches Hg (1008.0 mb)
Winds: variable direction winds at 3 MPH (3 knots; 1.5 m/s)
Visibility: 6 or more miles (10+ km)
Ceiling: 15000 feet AGL
Clouds: few clouds at 1700 feet AGL
broken clouds at 15000 feet AGL
broken clouds at 30000 feet AGL
Weather: -TSRA  (light rain associated with thunderstorm(s))

METAR text: WMKN 210800Z 06005KT 340V120 7000 TS FEW017CB SCT018 BKN150 31/26 Q1008
Conditions at: WMKN (KUALA TRENGGANU , MY) observed 0800 UTC 21 August 2019
Temperature: 31.0°C (88°F)
Dewpoint: 26.0°C (79°F) [RH = 75%]
Pressure (altimeter): 29.76 inches Hg (1008.0 mb)
Winds: from the ENE (60 degrees) at 6 MPH (5 knots; 2.6 m/s)
Visibility: 4 miles ( 7 km)
Ceiling: 15000 feet AGL
Clouds: few clouds at 1700 feet AGL
scattered clouds at 1800 feet AGL
broken clouds at 15000 feet AGL
Weather: TS  (thunderstorm)

METAR text: WMKN 210700Z VRB05KT 9999 FEW017CB SCT018 BKN300 31/26 Q1008
Conditions at: WMKN (KUALA TRENGGANU , MY) observed 0700 UTC 21 August 2019
Temperature: 31.0°C (88°F)
Dewpoint: 26.0°C (79°F) [RH = 75%]
Pressure (altimeter): 29.76 inches Hg (1008.0 mb)
Winds: variable direction winds at 6 MPH (5 knots; 2.6 m/s)
Visibility: 6 or more miles (10+ km)
Ceiling: 30000 feet AGL
Clouds: few clouds at 1700 feet AGL
scattered clouds at 1800 feet AGL
broken clouds at 30000 feet AGL
Weather: no significant weather observed at this time

METAR text: WMKN 210600Z VRB05KT 9999 SCT018 SCT150 BKN300 31/25 Q1009
Conditions at: WMKN (KUALA TRENGGANU , MY) observed 0600 UTC 21 August 2019
Temperature: 31.0°C (88°F)
Dewpoint: 25.0°C (77°F) [RH = 71%]
Pressure (altimeter): 29.79 inches Hg (1009.0 mb)
Winds: variable direction winds at 6 MPH (5 knots; 2.6 m/s)
Visibility: 6 or more miles (10+ km)
Ceiling: 30000 feet AGL
Clouds: scattered clouds at 1800 feet AGL
scattered clouds at 15000 feet AGL
broken clouds at 30000 feet AGL
Weather: no significant weather observed at this time

METAR text: WMKN 210500Z VRB03KT 9999 SCT018 SCT150 BKN300 32/25 Q1010
Conditions at: WMKN (KUALA TRENGGANU , MY) observed 0500 UTC 21 August 2019
Temperature: 32.0°C (90°F)
Dewpoint: 25.0°C (77°F) [RH = 67%]
Pressure (altimeter): 29.82 inches Hg (1010.0 mb)
Winds: variable direction winds at 3 MPH (3 knots; 1.5 m/s)
Visibility: 6 or more miles (10+ km)
Ceiling: 30000 feet AGL
Clouds: scattered clouds at 1800 feet AGL
scattered clouds at 15000 feet AGL
broken clouds at 30000 feet AGL
Weather: no significant weather observed at this time

METAR text: WMKN 210400Z 19006KT 110V250 9999 FEW018 BKN150 31/24 Q1010
Conditions at: WMKN (KUALA TRENGGANU , MY) observed 0400 UTC 21 August 2019
Temperature: 31.0°C (88°F)
Dewpoint: 24.0°C (75°F) [RH = 66%]
Pressure (altimeter): 29.82 inches Hg (1010.0 mb)
Winds: from the S (190 degrees) at 7 MPH (6 knots; 3.1 m/s)
Visibility: 6 or more miles (10+ km)
Ceiling: 15000 feet AGL
Clouds: few clouds at 1800 feet AGL
broken clouds at 15000 feet AGL
Weather: no significant weather observed at this time

METAR text: WMKN 210300Z 20004KT 150V260 9999 SCT018 BKN150 29/24 Q1011
Conditions at: WMKN (KUALA TRENGGANU , MY) observed 0300 UTC 21 August 2019
Temperature: 29.0°C (84°F)
Dewpoint: 24.0°C (75°F) [RH = 74%]
Pressure (altimeter): 29.85 inches Hg (1011.0 mb)
Winds: from the SSW (200 degrees) at 5 MPH (4 knots; 2.1 m/s)
Visibility: 6 or more miles (10+ km)
Ceiling: 15000 feet AGL
Clouds: scattered clouds at 1800 feet AGL
broken clouds at 15000 feet AGL
Weather: no significant weather observed at this time

METAR text: WMKN 210200Z 23004KT 160V270 9999 SCT018 BKN150 28/24 Q1011
Conditions at: WMKN (KUALA TRENGGANU , MY) observed 0200 UTC 21 August 2019
Temperature: 28.0°C (82°F)
Dewpoint: 24.0°C (75°F) [RH = 79%]
Pressure (altimeter): 29.85 inches Hg (1011.0 mb)
Winds: from the SW (230 degrees) at 5 MPH (4 knots; 2.1 m/s)
Visibility: 6 or more miles (10+ km)
Ceiling: 15000 feet AGL
Clouds: scattered clouds at 1800 feet AGL
broken clouds at 15000 feet AGL
Weather: no significant weather observed at this time

METAR text: WMKN 210100Z 19004KT 150V240 9999 FEW018 SCT150 BKN300 28/25 Q1010
Conditions at: WMKN (KUALA TRENGGANU , MY) observed 0100 UTC 21 August 2019
Temperature: 28.0°C (82°F)
Dewpoint: 25.0°C (77°F) [RH = 84%]
Pressure (altimeter): 29.82 inches Hg (1010.0 mb)
Winds: from the S (190 degrees) at 5 MPH (4 knots; 2.1 m/s)
Visibility: 6 or more miles (10+ km)
Ceiling: 30000 feet AGL
Clouds: few clouds at 1800 feet AGL
scattered clouds at 15000 feet AGL
broken clouds at 30000 feet AGL
Weather: no significant weather observed at this time

METAR text: WMKN 210000Z 23004KT 180V260 9999 FEW018 SCT150 BKN300 26/24 Q1009
Conditions at: WMKN (KUALA TRENGGANU , MY) observed 0000 UTC 21 August 2019
Temperature: 26.0°C (79°F)
Dewpoint: 24.0°C (75°F) [RH = 89%]
Pressure (altimeter): 29.79 inches Hg (1009.0 mb)
Winds: from the SW (230 degrees) at 5 MPH (4 knots; 2.1 m/s)
Visibility: 6 or more miles (10+ km)
Ceiling: 30000 feet AGL
Clouds: few clouds at 1800 feet AGL
scattered clouds at 15000 feet AGL
broken clouds at 30000 feet AGL
Weather: no significant weather observed at this time

METAR text: WMKN 202300Z 22005KT 170V250 9999 SCT022 SCT150 BKN300 26/24 Q1009
Conditions at: WMKN (KUALA TRENGGANU , MY) observed 2300 UTC 20 August 2019
Temperature: 26.0°C (79°F)
Dewpoint: 24.0°C (75°F) [RH = 89%]
Pressure (altimeter): 29.79 inches Hg (1009.0 mb)
Winds: from the SW (220 degrees) at 6 MPH (5 knots; 2.6 m/s)
Visibility: 6 or more miles (10+ km)
Ceiling: 30000 feet AGL
Clouds: scattered clouds at 2200 feet AGL
scattered clouds at 15000 feet AGL
broken clouds at 30000 feet AGL
Weather: no significant weather observed at this time

METAR text: WMKN 202200Z 20003KT 160V240 9000 FEW022 BKN300 26/24 Q1009
Conditions at: WMKN (KUALA TRENGGANU , MY) observed 2200 UTC 20 August 2019
Temperature: 26.0°C (79°F)
Dewpoint: 24.0°C (75°F) [RH = 89%]
Pressure (altimeter): 29.79 inches Hg (1009.0 mb)
Winds: from the SSW (200 degrees) at 3 MPH (3 knots; 1.5 m/s)
Visibility: 6 miles ( 9 km)
Ceiling: 30000 feet AGL
Clouds: few clouds at 2200 feet AGL
broken clouds at 30000 feet AGL
Weather: no significant weather observed at this time

METAR text: WMKN 202100Z 20003KT 150V260 9000 FEW022 BKN300 26/24 Q1008
Conditions at: WMKN (KUALA TRENGGANU , MY) observed 2100 UTC 20 August 2019
Temperature: 26.0°C (79°F)
Dewpoint: 24.0°C (75°F) [RH = 89%]
Pressure (altimeter): 29.76 inches Hg (1008.0 mb)
Winds: from the SSW (200 degrees) at 3 MPH (3 knots; 1.5 m/s)
Visibility: 6 miles ( 9 km)
Ceiling: 30000 feet AGL
Clouds: few clouds at 2200 feet AGL
broken clouds at 30000 feet AGL
Weather: no significant weather observed at this time

METAR text: WMKN 202000Z 23003KT 200V260 9999 FEW022 BKN300 26/24 Q1008
Conditions at: WMKN (KUALA TRENGGANU , MY) observed 2000 UTC 20 August 2019
Temperature: 26.0°C (79°F)
Dewpoint: 24.0°C (75°F) [RH = 89%]
Pressure (altimeter): 29.76 inches Hg (1008.0 mb)
Winds: from the SW (230 degrees) at 3 MPH (3 knots; 1.5 m/s)
Visibility: 6 or more miles (10+ km)
Ceiling: 30000 feet AGL
Clouds: few clouds at 2200 feet AGL
broken clouds at 30000 feet AGL
Weather: no significant weather observed at this time

METAR text: WMKN 201900Z VRB01KT 9999 FEW018 SCT150 BKN300 26/24 Q1008
Conditions at: WMKN (KUALA TRENGGANU , MY) observed 1900 UTC 20 August 2019
Temperature: 26.0°C (79°F)
Dewpoint: 24.0°C (75°F) [RH = 89%]
Pressure (altimeter): 29.76 inches Hg (1008.0 mb)
Winds: variable direction winds at 1 MPH (1 knots; 0.5 m/s)
Visibility: 6 or more miles (10+ km)
Ceiling: 30000 feet AGL
Clouds: few clouds at 1800 feet AGL
scattered clouds at 15000 feet AGL
broken clouds at 30000 feet AGL
Weather: no significant weather observed at this time

METAR text: WMKN 201800Z 23005KT 190V260 9999 FEW022 SCT150 BKN300 26/24 Q1009
Conditions at: WMKN (KUALA TRENGGANU , MY) observed 1800 UTC 20 August 2019
Temperature: 26.0°C (79°F)
Dewpoint: 24.0°C (75°F) [RH = 89%]
Pressure (altimeter): 29.79 inches Hg (1009.0 mb)
Winds: from the SW (230 degrees) at 6 MPH (5 knots; 2.6 m/s)
Visibility: 6 or more miles (10+ km)
Ceiling: 30000 feet AGL
Clouds: few clouds at 2200 feet AGL
scattered clouds at 15000 feet AGL
broken clouds at 30000 feet AGL
Weather: no significant weather observed at this time

METAR text: WMKN 201700Z 24005KT 200V260 9999 FEW022 SCT150 BKN300 26/24 Q1009
Conditions at: WMKN (KUALA TRENGGANU , MY) observed 1700 UTC 20 August 2019
Temperature: 26.0°C (79°F)
Dewpoint: 24.0°C (75°F) [RH = 89%]
Pressure (altimeter): 29.79 inches Hg (1009.0 mb)
Winds: from the WSW (240 degrees) at 6 MPH (5 knots; 2.6 m/s)
Visibility: 6 or more miles (10+ km)
Ceiling: 30000 feet AGL
Clouds: few clouds at 2200 feet AGL
scattered clouds at 15000 feet AGL
broken clouds at 30000 feet AGL
Weather: no significant weather observed at this time

METAR text: WMKN 201600Z VRB02KT 9999 FEW022 BKN300 26/24 Q1009
Conditions at: WMKN (KUALA TRENGGANU , MY) observed 1600 UTC 20 August 2019
Temperature: 26.0°C (79°F)
Dewpoint: 24.0°C (75°F) [RH = 89%]
Pressure (altimeter): 29.79 inches Hg (1009.0 mb)
Winds: variable direction winds at 2 MPH (2 knots; 1.0 m/s)
Visibility: 6 or more miles (10+ km)
Ceiling: 30000 feet AGL
Clouds: few clouds at 2200 feet AGL
broken clouds at 30000 feet AGL
Weather: no significant weather observed at this time

METAR text: WMKN 201500Z VRB02KT 9999 FEW022 BKN300 26/24 Q1009
Conditions at: WMKN (KUALA TRENGGANU , MY) observed 1500 UTC 20 August 2019
Temperature: 26.0°C (79°F)
Dewpoint: 24.0°C (75°F) [RH = 89%]
Pressure (altimeter): 29.79 inches Hg (1009.0 mb)
Winds: variable direction winds at 2 MPH (2 knots; 1.0 m/s)
Visibility: 6 or more miles (10+ km)
Ceiling: 30000 feet AGL
Clouds: few clouds at 2200 feet AGL
broken clouds at 30000 feet AGL
Weather: no significant weather observed at this time

METAR text: WMKN 201400Z VRB02KT 9999 FEW022 BKN300 26/24 Q1008
Conditions at: WMKN (KUALA TRENGGANU , MY) observed 1400 UTC 20 August 2019
Temperature: 26.0°C (79°F)
Dewpoint: 24.0°C (75°F) [RH = 89%]
Pressure (altimeter): 29.76 inches Hg (1008.0 mb)
Winds: variable direction winds at 2 MPH (2 knots; 1.0 m/s)
Visibility: 6 or more miles (10+ km)
Ceiling: 30000 feet AGL
Clouds: few clouds at 2200 feet AGL
broken clouds at 30000 feet AGL
Weather: no significant weather observed at this time

METAR text: WMKN 201300Z VRB01KT 9999 FEW022 BKN300 25/24 Q1008
Conditions at: WMKN (KUALA TRENGGANU , MY) observed 1300 UTC 20 August 2019
Temperature: 25.0°C (77°F)
Dewpoint: 24.0°C (75°F) [RH = 94%]
Pressure (altimeter): 29.76 inches Hg (1008.0 mb)
Winds: variable direction winds at 1 MPH (1 knots; 0.5 m/s)
Visibility: 6 or more miles (10+ km)
Ceiling: 30000 feet AGL
Clouds: few clouds at 2200 feet AGL
broken clouds at 30000 feet AGL
Weather: no significant weather observed at this time

METAR text: WMKN 201200Z 23005KT 200V260 9999 FEW022 BKN300 26/23 Q1007
Conditions at: WMKN (KUALA TRENGGANU , MY) observed 1200 UTC 20 August 2019
Temperature: 26.0°C (79°F)
Dewpoint: 23.0°C (73°F) [RH = 84%]
Pressure (altimeter): 29.73 inches Hg (1007.0 mb)
Winds: from the SW (230 degrees) at 6 MPH (5 knots; 2.6 m/s)
Visibility: 6 or more miles (10+ km)
Ceiling: 30000 feet AGL
Clouds: few clouds at 2200 feet AGL
broken clouds at 30000 feet AGL
Weather: no significant weather observed at this time

METAR text: WMKN 201100Z 17003KT 110V230 9999 FEW017CB BKN300 28/23 Q1007
Conditions at: WMKN (KUALA TRENGGANU , MY) observed 1100 UTC 20 August 2019
Temperature: 28.0°C (82°F)
Dewpoint: 23.0°C (73°F) [RH = 74%]
Pressure (altimeter): 29.73 inches Hg (1007.0 mb)
Winds: from the S (170 degrees) at 3 MPH (3 knots; 1.5 m/s)
Visibility: 6 or more miles (10+ km)
Ceiling: 30000 feet AGL
Clouds: few clouds at 1700 feet AGL
broken clouds at 30000 feet AGL
Weather: no significant weather observed at this time

METAR text: WMKN 201000Z 23004KT 150V290 9999 FEW017CB SCT150 BKN300 29/24 Q1006
Conditions at: WMKN (KUALA TRENGGANU , MY) observed 1000 UTC 20 August 2019
Temperature: 29.0°C (84°F)
Dewpoint: 24.0°C (75°F) [RH = 74%]
Pressure (altimeter): 29.70 inches Hg (1006.0 mb)
Winds: from the SW (230 degrees) at 5 MPH (4 knots; 2.1 m/s)
Visibility: 6 or more miles (10+ km)
Ceiling: 30000 feet AGL
Clouds: few clouds at 1700 feet AGL
scattered clouds at 15000 feet AGL
broken clouds at 30000 feet AGL
Weather: no significant weather observed at this time

METAR text: WMKN 200900Z 17005KT 080V210 9999 TS FEW017CB SCT018 BKN150 30/25 Q1007
Conditions at: WMKN (KUALA TRENGGANU , MY) observed 0900 UTC 20 August 2019
Temperature: 30.0°C (86°F)
Dewpoint: 25.0°C (77°F) [RH = 75%]
Pressure (altimeter): 29.73 inches Hg (1007.0 mb)
Winds: from the S (170 degrees) at 6 MPH (5 knots; 2.6 m/s)
Visibility: 6 or more miles (10+ km)
Ceiling: 15000 feet AGL
Clouds: few clouds at 1700 feet AGL
scattered clouds at 1800 feet AGL
broken clouds at 15000 feet AGL
Weather: TS  (thunderstorm)

METAR text: WMKN 200800Z VRB06KT 5000 TS HZ FEW017CB SCT018 BKN300 32/26 Q1007
Conditions at: WMKN (KUALA TRENGGANU , MY) observed 0800 UTC 20 August 2019
Temperature: 32.0°C (90°F)
Dewpoint: 26.0°C (79°F) [RH = 71%]
Pressure (altimeter): 29.73 inches Hg (1007.0 mb)
Winds: variable direction winds at 7 MPH (6 knots; 3.1 m/s)
Visibility: 3 miles ( 5 km)
Ceiling: 30000 feet AGL
Clouds: few clouds at 1700 feet AGL
scattered clouds at 1800 feet AGL
broken clouds at 30000 feet AGL
Weather: TS HZ  (thunderstorm, haze)

METAR text: WMKN 200700Z VRB07KT 7000 TS FEW017CB BKN300 32/26 Q1007
Conditions at: WMKN (KUALA TRENGGANU , MY) observed 0700 UTC 20 August 2019
Temperature: 32.0°C (90°F)
Dewpoint: 26.0°C (79°F) [RH = 71%]
Pressure (altimeter): 29.73 inches Hg (1007.0 mb)
Winds: variable direction winds at 8 MPH (7 knots; 3.6 m/s)
Visibility: 4 miles ( 7 km)
Ceiling: 30000 feet AGL
Clouds: few clouds at 1700 feet AGL
broken clouds at 30000 feet AGL
Weather: TS  (thunderstorm)

METAR text: WMKN 200600Z VRB06KT 5000 HZ SCT018 SCT150 BKN300 33/26 Q1008
Conditions at: WMKN (KUALA TRENGGANU , MY) observed 0600 UTC 20 August 2019
Temperature: 33.0°C (91°F)
Dewpoint: 26.0°C (79°F) [RH = 67%]
Pressure (altimeter): 29.76 inches Hg (1008.0 mb)
Winds: variable direction winds at 7 MPH (6 knots; 3.1 m/s)
Visibility: 3 miles ( 5 km)
Ceiling: 30000 feet AGL
Clouds: scattered clouds at 1800 feet AGL
scattered clouds at 15000 feet AGL
broken clouds at 30000 feet AGL
Weather: HZ  (haze)

METAR text: WMKN 200500Z VRB06KT 6000 SCT018 SCT150 BKN300 32/26 Q1009
Conditions at: WMKN (KUALA TRENGGANU , MY) observed 0500 UTC 20 August 2019
Temperature: 32.0°C (90°F)
Dewpoint: 26.0°C (79°F) [RH = 71%]
Pressure (altimeter): 29.79 inches Hg (1009.0 mb)
Winds: variable direction winds at 7 MPH (6 knots; 3.1 m/s)
Visibility: 4 miles ( 6 km)
Ceiling: 30000 feet AGL
Clouds: scattered clouds at 1800 feet AGL
scattered clouds at 15000 feet AGL
broken clouds at 30000 feet AGL
Weather: no significant weather observed at this time

METAR text: WMKN 200400Z 11005KT 020V190 6000 SCT018 SCT150 BKN300 32/25 Q1009
Conditions at: WMKN (KUALA TRENGGANU , MY) observed 0400 UTC 20 August 2019
Temperature: 32.0°C (90°F)
Dewpoint: 25.0°C (77°F) [RH = 67%]
Pressure (altimeter): 29.79 inches Hg (1009.0 mb)
Winds: from the ESE (110 degrees) at 6 MPH (5 knots; 2.6 m/s)
Visibility: 4 miles ( 6 km)
Ceiling: 30000 feet AGL
Clouds: scattered clouds at 1800 feet AGL
scattered clouds at 15000 feet AGL
broken clouds at 30000 feet AGL
Weather: no significant weather observed at this time

METAR text: WMKN 200300Z VRB02KT 5000 HZ SCT018 BKN150 BKN300 31/25 Q1010
Conditions at: WMKN (KUALA TRENGGANU , MY) observed 0300 UTC 20 August 2019
Temperature: 31.0°C (88°F)
Dewpoint: 25.0°C (77°F) [RH = 71%]
Pressure (altimeter): 29.82 inches Hg (1010.0 mb)
Winds: variable direction winds at 2 MPH (2 knots; 1.0 m/s)
Visibility: 3 miles ( 5 km)
Ceiling: 15000 feet AGL
Clouds: scattered clouds at 1800 feet AGL
broken clouds at 15000 feet AGL
broken clouds at 30000 feet AGL
Weather: HZ  (haze)

Forecast for: WMKN (KUALA TRENGGANU , MY)
Text: TAF WMKN 211100Z 2112/2212 23005KT 9999 FEW022
Forecast period: 1200 UTC 21 August 2019 to 0000 UTC 22 August 2019
Forecast type: FROM: standard forecast or significant change
Winds: from the SW (230 degrees) at 6 MPH (5 knots; 2.6 m/s)
Visibility: 6 or more miles 10+ km)
Ceiling: at least 12,000 feet AGL
Clouds: few clouds at 2200 feet AGL
Weather: no significant weather forecast for this period
Text: BECMG 2200/2202 FEW018
Forecast period: 0000 to 1200 UTC 22 August 2019
Forecast type: BECOMING: Conditions expected to become as follows by 0200 UTC 22 August 2019
Winds: from the SW (230 degrees) at 6 MPH (5 knots; 2.6 m/s)
Visibility: 6 or more miles 10+ km)
Ceiling: at least 12,000 feet AGL
Clouds: few clouds at 1800 feet AGL
Weather: no significant weather forecast for this period